sensor_id;sensor_type;location;lat;lon;timestamp;temperature;humidity
76789;DHT22;65740;52.464;13.446;2023-09-18T00:02:26;23.30;51.10
76789;DHT22;65740;52.464;13.446;2023-09-18T00:04:52;23.30;51.10
76789;DHT22;65740;52.464;13.446;2023-09-18T00:07:18;23.30;51.00
76789;DHT22;65740;52.464;13.446;2023-09-18T00:09:43;23.30;51.70
76789;DHT22;65740;52.464;13.446;2023-09-18T00:12:09;23.30;51.00
76789;DHT22;65740;52.464;13.446;2023-09-18T00:14:36;23.30;51.00
76789;DHT22;65740;52.464;13.446;2023-09-18T00:17:02;23.30;51.00
76789;DHT22;65740;52.464;13.446;2023-09-18T00:19:28;23.30;51.10
76789;DHT22;65740;52.464;13.446;2023-09-18T00:21:53;23.30;50.90
76789;DHT22;65740;52.464;13.446;2023-09-18T00:24:20;23.30;50.80
76789;DHT22;65740;52.464;13.446;2023-09-18T00:26:47;23.30;50.80
76789;DHT22;65740;52.464;13.446;2023-09-18T00:29:13;23.30;50.80
76789;DHT22;65740;52.464;13.446;2023-09-18T00:31:39;23.20;50.70
76789;DHT22;65740;52.464;13.446;2023-09-18T00:34:04;23.20;50.70
76789;DHT22;65740;52.464;13.446;2023-09-18T00:36:30;23.20;50.70
76789;DHT22;65740;52.464;13.446;2023-09-18T00:38:56;23.20;50.70
76789;DHT22;65740;52.464;13.446;2023-09-18T00:41:21;23.20;50.60
76789;DHT22;65740;52.464;13.446;2023-09-18T00:43:47;23.20;51.20
76789;DHT22;65740;52.464;13.446;2023-09-18T00:46:12;23.20;50.60
76789;DHT22;65740;52.464;13.446;2023-09-18T00:48:38;23.20;50.60
76789;DHT22;65740;52.464;13.446;2023-09-18T00:51:04;23.20;50.60
76789;DHT22;65740;52.464;13.446;2023-09-18T00:53:30;23.20;50.50
76789;DHT22;65740;52.464;13.446;2023-09-18T00:55:57;23.20;50.50
76789;DHT22;65740;52.464;13.446;2023-09-18T00:58:24;23.20;50.40
76789;DHT22;65740;52.464;13.446;2023-09-18T01:00:50;23.20;50.40
76789;DHT22;65740;52.464;13.446;2023-09-18T01:03:16;23.20;50.50
76789;DHT22;65740;52.464;13.446;2023-09-18T01:05:44;23.20;50.40
76789;DHT22;65740;52.464;13.446;2023-09-18T01:08:10;23.20;50.40
76789;DHT22;65740;52.464;13.446;2023-09-18T01:11:26;23.10;50.30
76789;DHT22;65740;52.464;13.446;2023-09-18T01:14:20;23.20;50.30
76789;DHT22;65740;52.464;13.446;2023-09-18T01:16:56;23.10;50.30
76789;DHT22;65740;52.464;13.446;2023-09-18T01:19:44;23.10;50.20
76789;DHT22;65740;52.464;13.446;2023-09-18T01:22:15;23.10;50.20
76789;DHT22;65740;52.464;13.446;2023-09-18T01:24:46;23.10;50.10
76789;DHT22;65740;52.464;13.446;2023-09-18T01:27:17;23.10;50.10
76789;DHT22;65740;52.464;13.446;2023-09-18T01:29:43;23.10;50.20
76789;DHT22;65740;52.464;13.446;2023-09-18T01:32:09;23.10;50.10
76789;DHT22;65740;52.464;13.446;2023-09-18T01:34:42;23.10;50.10
76789;DHT22;65740;52.464;13.446;2023-09-18T01:37:11;23.10;50.10
76789;DHT22;65740;52.464;13.446;2023-09-18T01:39:38;23.10;50.10
76789;DHT22;65740;52.464;13.446;2023-09-18T01:42:05;23.10;50.00
76789;DHT22;65740;52.464;13.446;2023-09-18T01:44:34;23.10;49.90
76789;DHT22;65740;52.464;13.446;2023-09-18T01:47:06;23.10;50.00
76789;DHT22;65740;52.464;13.446;2023-09-18T01:49:36;23.00;49.80
76789;DHT22;65740;52.464;13.446;2023-09-18T01:52:03;23.00;49.90
76789;DHT22;65740;52.464;13.446;2023-09-18T01:54:33;23.00;49.80
76789;DHT22;65740;52.464;13.446;2023-09-18T01:56:58;23.00;49.90
76789;DHT22;65740;52.464;13.446;2023-09-18T01:59:24;23.00;49.80
76789;DHT22;65740;52.464;13.446;2023-09-18T02:01:51;23.00;50.30
76789;DHT22;65740;52.464;13.446;2023-09-18T02:04:17;23.00;49.70
76789;DHT22;65740;52.464;13.446;2023-09-18T02:06:43;23.00;49.70
76789;DHT22;65740;52.464;13.446;2023-09-18T02:09:09;23.00;49.70
76789;DHT22;65740;52.464;13.446;2023-09-18T02:11:40;23.00;49.70
76789;DHT22;65740;52.464;13.446;2023-09-18T02:14:06;23.00;49.70
76789;DHT22;65740;52.464;13.446;2023-09-18T02:16:33;22.90;49.50
76789;DHT22;65740;52.464;13.446;2023-09-18T02:18:59;22.90;49.50
76789;DHT22;65740;52.464;13.446;2023-09-18T02:21:25;22.90;49.50
76789;DHT22;65740;52.464;13.446;2023-09-18T02:23:52;22.90;50.10
76789;DHT22;65740;52.464;13.446;2023-09-18T02:26:19;23.00;49.40
76789;DHT22;65740;52.464;13.446;2023-09-18T02:28:44;22.90;49.40
76789;DHT22;65740;52.464;13.446;2023-09-18T02:31:10;22.90;49.50
76789;DHT22;65740;52.464;13.446;2023-09-18T02:33:39;22.90;49.40
76789;DHT22;65740;52.464;13.446;2023-09-18T02:36:05;22.90;49.40
76789;DHT22;65740;52.464;13.446;2023-09-18T02:38:33;22.90;49.30
76789;DHT22;65740;52.464;13.446;2023-09-18T02:40:59;22.90;49.30
76789;DHT22;65740;52.464;13.446;2023-09-18T02:43:25;22.90;49.20
76789;DHT22;65740;52.464;13.446;2023-09-18T02:45:51;22.90;49.20
76789;DHT22;65740;52.464;13.446;2023-09-18T02:48:17;22.90;49.20
76789;DHT22;65740;52.464;13.446;2023-09-18T02:50:43;22.90;49.20
76789;DHT22;65740;52.464;13.446;2023-09-18T02:53:17;22.90;49.20
76789;DHT22;65740;52.464;13.446;2023-09-18T02:55:44;22.80;49.10
76789;DHT22;65740;52.464;13.446;2023-09-18T02:58:10;22.80;49.10
76789;DHT22;65740;52.464;13.446;2023-09-18T03:00:41;22.80;49.80
76789;DHT22;65740;52.464;13.446;2023-09-18T03:03:08;22.80;49.10
76789;DHT22;65740;52.464;13.446;2023-09-18T03:05:34;22.80;49.10
76789;DHT22;65740;52.464;13.446;2023-09-18T03:07:59;22.80;49.10
76789;DHT22;65740;52.464;13.446;2023-09-18T03:10:25;22.80;49.10
76789;DHT22;65740;52.464;13.446;2023-09-18T03:12:51;22.80;49.10
76789;DHT22;65740;52.464;13.446;2023-09-18T03:15:16;22.80;49.10
76789;DHT22;65740;52.464;13.446;2023-09-18T03:17:42;22.80;49.10
76789;DHT22;65740;52.464;13.446;2023-09-18T03:20:08;22.80;49.80
76789;DHT22;65740;52.464;13.446;2023-09-18T03:22:34;22.80;49.10
76789;DHT22;65740;52.464;13.446;2023-09-18T03:25:00;22.80;49.10
76789;DHT22;65740;52.464;13.446;2023-09-18T03:27:26;22.80;49.10
76789;DHT22;65740;52.464;13.446;2023-09-18T03:29:59;22.80;49.10
76789;DHT22;65740;52.464;13.446;2023-09-18T03:32:25;22.80;49.10
76789;DHT22;65740;52.464;13.446;2023-09-18T03:34:51;22.70;49.00
76789;DHT22;65740;52.464;13.446;2023-09-18T03:37:17;22.70;49.00
76789;DHT22;65740;52.464;13.446;2023-09-18T03:39:43;22.70;49.00
76789;DHT22;65740;52.464;13.446;2023-09-18T03:42:09;22.70;49.00
76789;DHT22;65740;52.464;13.446;2023-09-18T03:44:35;22.70;49.00
76789;DHT22;65740;52.464;13.446;2023-09-18T03:47:01;22.70;49.00
76789;DHT22;65740;52.464;13.446;2023-09-18T03:49:27;22.70;49.00
76789;DHT22;65740;52.464;13.446;2023-09-18T03:51:53;22.70;49.00
76789;DHT22;65740;52.464;13.446;2023-09-18T03:54:19;22.70;49.00
76789;DHT22;65740;52.464;13.446;2023-09-18T03:56:44;22.70;49.00
76789;DHT22;65740;52.464;13.446;2023-09-18T03:59:14;22.70;49.00
76789;DHT22;65740;52.464;13.446;2023-09-18T04:01:40;22.70;49.00
76789;DHT22;65740;52.464;13.446;2023-09-18T04:04:05;22.70;49.00
76789;DHT22;65740;52.464;13.446;2023-09-18T04:06:42;22.70;49.00
76789;DHT22;65740;52.464;13.446;2023-09-18T04:09:09;22.70;49.70
76789;DHT22;65740;52.464;13.446;2023-09-18T04:11:35;22.60;48.90
76789;DHT22;65740;52.464;13.446;2023-09-18T04:14:01;22.70;49.00
76789;DHT22;65740;52.464;13.446;2023-09-18T04:16:27;22.60;48.90
76789;DHT22;65740;52.464;13.446;2023-09-18T04:19:02;22.60;48.90
76789;DHT22;65740;52.464;13.446;2023-09-18T04:21:28;22.60;48.90
76789;DHT22;65740;52.464;13.446;2023-09-18T04:23:55;22.60;48.90
76789;DHT22;65740;52.464;13.446;2023-09-18T04:26:26;22.60;48.90
76789;DHT22;65740;52.464;13.446;2023-09-18T04:28:59;22.60;48.90
76789;DHT22;65740;52.464;13.446;2023-09-18T04:31:25;22.60;48.90
76789;DHT22;65740;52.464;13.446;2023-09-18T04:33:50;22.60;48.90
76789;DHT22;65740;52.464;13.446;2023-09-18T04:36:16;22.60;48.90
76789;DHT22;65740;52.464;13.446;2023-09-18T04:38:42;22.60;48.90
76789;DHT22;65740;52.464;13.446;2023-09-18T04:41:07;22.60;48.90
76789;DHT22;65740;52.464;13.446;2023-09-18T04:43:36;22.60;48.90
76789;DHT22;65740;52.464;13.446;2023-09-18T04:46:02;22.60;48.90
76789;DHT22;65740;52.464;13.446;2023-09-18T04:48:30;22.50;48.80
76789;DHT22;65740;52.464;13.446;2023-09-18T04:50:57;22.60;48.90
76789;DHT22;65740;52.464;13.446;2023-09-18T04:53:23;22.50;48.80
76789;DHT22;65740;52.464;13.446;2023-09-18T04:55:48;22.50;48.80
76789;DHT22;65740;52.464;13.446;2023-09-18T04:58:16;22.50;48.80
76789;DHT22;65740;52.464;13.446;2023-09-18T05:00:42;22.50;48.80
76789;DHT22;65740;52.464;13.446;2023-09-18T05:03:08;22.50;48.80
76789;DHT22;65740;52.464;13.446;2023-09-18T05:05:35;22.60;48.90
76789;DHT22;65740;52.464;13.446;2023-09-18T05:08:06;22.50;48.80
76789;DHT22;65740;52.464;13.446;2023-09-18T05:10:35;22.50;48.80
76789;DHT22;65740;52.464;13.446;2023-09-18T05:13:01;22.60;48.90
76789;DHT22;65740;52.464;13.446;2023-09-18T05:15:28;22.60;49.00
76789;DHT22;65740;52.464;13.446;2023-09-18T05:17:59;22.50;48.80
76789;DHT22;65740;52.464;13.446;2023-09-18T05:20:26;22.50;48.80
76789;DHT22;65740;52.464;13.446;2023-09-18T05:22:52;22.50;48.80
76789;DHT22;65740;52.464;13.446;2023-09-18T05:25:25;22.50;48.80
76789;DHT22;65740;52.464;13.446;2023-09-18T05:27:53;22.50;48.80
76789;DHT22;65740;52.464;13.446;2023-09-18T05:30:27;22.50;48.80
76789;DHT22;65740;52.464;13.446;2023-09-18T05:32:54;22.50;48.80
76789;DHT22;65740;52.464;13.446;2023-09-18T05:35:20;22.50;48.80
76789;DHT22;65740;52.464;13.446;2023-09-18T05:37:46;22.50;48.80
76789;DHT22;65740;52.464;13.446;2023-09-18T05:40:13;22.50;48.80
76789;DHT22;65740;52.464;13.446;2023-09-18T05:42:43;22.50;48.80
76789;DHT22;65740;52.464;13.446;2023-09-18T05:45:12;22.50;48.80
76789;DHT22;65740;52.464;13.446;2023-09-18T05:47:38;22.50;48.80
76789;DHT22;65740;52.464;13.446;2023-09-18T05:50:09;22.40;48.70
76789;DHT22;65740;52.464;13.446;2023-09-18T05:52:35;22.40;48.70
76789;DHT22;65740;52.464;13.446;2023-09-18T05:55:04;22.40;48.70
76789;DHT22;65740;52.464;13.446;2023-09-18T05:57:31;22.40;48.70
76789;DHT22;65740;52.464;13.446;2023-09-18T05:59:57;22.40;48.70
76789;DHT22;65740;52.464;13.446;2023-09-18T06:02:23;22.40;48.70
76789;DHT22;65740;52.464;13.446;2023-09-18T06:05:00;22.40;48.70
76789;DHT22;65740;52.464;13.446;2023-09-18T06:07:26;22.40;48.70
76789;DHT22;65740;52.464;13.446;2023-09-18T06:09:52;22.40;48.70
76789;DHT22;65740;52.464;13.446;2023-09-18T06:12:18;22.40;48.80
76789;DHT22;65740;52.464;13.446;2023-09-18T06:14:44;22.40;48.70
76789;DHT22;65740;52.464;13.446;2023-09-18T06:17:10;22.40;48.50
76789;DHT22;65740;52.464;13.446;2023-09-18T06:19:36;22.40;48.70
76789;DHT22;65740;52.464;13.446;2023-09-18T06:22:02;22.40;48.40
76789;DHT22;65740;52.464;13.446;2023-09-18T06:24:27;22.40;48.50
76789;DHT22;65740;52.464;13.446;2023-09-18T06:26:53;22.40;48.30
76789;DHT22;65740;52.464;13.446;2023-09-18T06:29:19;22.40;48.40
76789;DHT22;65740;52.464;13.446;2023-09-18T06:31:45;22.40;48.30
76789;DHT22;65740;52.464;13.446;2023-09-18T06:34:11;22.40;48.30
76789;DHT22;65740;52.464;13.446;2023-09-18T06:36:36;22.40;48.20
76789;DHT22;65740;52.464;13.446;2023-09-18T06:39:02;22.40;48.20
76789;DHT22;65740;52.464;13.446;2023-09-18T06:41:28;22.40;48.10
76789;DHT22;65740;52.464;13.446;2023-09-18T06:43:54;22.40;48.20
76789;DHT22;65740;52.464;13.446;2023-09-18T06:46:19;22.40;48.30
76789;DHT22;65740;52.464;13.446;2023-09-18T06:48:45;22.40;48.20
76789;DHT22;65740;52.464;13.446;2023-09-18T06:51:14;22.40;48.30
76789;DHT22;65740;52.464;13.446;2023-09-18T06:53:40;22.40;48.10
76789;DHT22;65740;52.464;13.446;2023-09-18T06:56:06;22.40;48.40
76789;DHT22;65740;52.464;13.446;2023-09-18T06:58:31;22.40;48.30
76789;DHT22;65740;52.464;13.446;2023-09-18T07:00:57;22.40;48.70
76789;DHT22;65740;52.464;13.446;2023-09-18T07:03:23;22.40;48.70
76789;DHT22;65740;52.464;13.446;2023-09-18T07:05:49;22.40;49.10
76789;DHT22;65740;52.464;13.446;2023-09-18T07:08:14;22.30;48.90
76789;DHT22;65740;52.464;13.446;2023-09-18T07:10:45;22.40;49.50
76789;DHT22;65740;52.464;13.446;2023-09-18T07:13:10;22.30;50.10
76789;DHT22;65740;52.464;13.446;2023-09-18T07:15:37;22.30;50.70
76789;DHT22;65740;52.464;13.446;2023-09-18T07:18:03;22.40;50.70
76789;DHT22;65740;52.464;13.446;2023-09-18T07:20:29;22.40;51.20
76789;DHT22;65740;52.464;13.446;2023-09-18T07:22:55;22.40;51.90
76789;DHT22;65740;52.464;13.446;2023-09-18T07:25:21;22.40;51.40
76789;DHT22;65740;52.464;13.446;2023-09-18T07:27:47;22.40;51.50
76789;DHT22;65740;52.464;13.446;2023-09-18T07:30:14;22.50;51.40
76789;DHT22;65740;52.464;13.446;2023-09-18T07:32:45;22.50;51.80
76789;DHT22;65740;52.464;13.446;2023-09-18T07:35:11;22.50;51.70
76789;DHT22;65740;52.464;13.446;2023-09-18T07:37:37;22.60;51.80
76789;DHT22;65740;52.464;13.446;2023-09-18T07:40:05;22.60;52.00
76789;DHT22;65740;52.464;13.446;2023-09-18T07:42:30;22.50;52.00
76789;DHT22;65740;52.464;13.446;2023-09-18T07:44:56;22.50;52.10
76789;DHT22;65740;52.464;13.446;2023-09-18T07:47:22;22.50;52.40
76789;DHT22;65740;52.464;13.446;2023-09-18T07:49:48;22.50;52.20
76789;DHT22;65740;52.464;13.446;2023-09-18T07:52:14;22.60;52.40
76789;DHT22;65740;52.464;13.446;2023-09-18T07:54:40;22.60;52.40
76789;DHT22;65740;52.464;13.446;2023-09-18T07:57:06;22.60;52.30
76789;DHT22;65740;52.464;13.446;2023-09-18T07:59:37;22.70;52.60
76789;DHT22;65740;52.464;13.446;2023-09-18T08:02:04;22.70;52.30
76789;DHT22;65740;52.464;13.446;2023-09-18T08:04:33;22.70;52.40
76789;DHT22;65740;52.464;13.446;2023-09-18T08:06:59;22.70;52.30
76789;DHT22;65740;52.464;13.446;2023-09-18T08:09:25;22.70;52.30
76789;DHT22;65740;52.464;13.446;2023-09-18T08:11:51;22.80;52.40
76789;DHT22;65740;52.464;13.446;2023-09-18T08:14:21;22.70;52.10
76789;DHT22;65740;52.464;13.446;2023-09-18T08:16:47;22.80;52.30
76789;DHT22;65740;52.464;13.446;2023-09-18T08:19:15;22.80;52.20
76789;DHT22;65740;52.464;13.446;2023-09-18T08:21:42;22.90;52.50
76789;DHT22;65740;52.464;13.446;2023-09-18T08:24:08;22.90;52.20
76789;DHT22;65740;52.464;13.446;2023-09-18T08:26:34;22.90;52.10
76789;DHT22;65740;52.464;13.446;2023-09-18T08:28:59;22.90;52.60
76789;DHT22;65740;52.464;13.446;2023-09-18T08:31:25;22.90;53.00
76789;DHT22;65740;52.464;13.446;2023-09-18T08:33:52;23.00;53.10
76789;DHT22;65740;52.464;13.446;2023-09-18T08:36:18;23.00;52.70
76789;DHT22;65740;52.464;13.446;2023-09-18T08:38:44;23.00;53.10
76789;DHT22;65740;52.464;13.446;2023-09-18T08:41:12;23.10;53.00
76789;DHT22;65740;52.464;13.446;2023-09-18T08:43:41;23.10;53.00
76789;DHT22;65740;52.464;13.446;2023-09-18T08:46:08;23.10;53.00
76789;DHT22;65740;52.464;13.446;2023-09-18T08:48:35;23.10;52.80
76789;DHT22;65740;52.464;13.446;2023-09-18T08:51:03;23.20;52.80
76789;DHT22;65740;52.464;13.446;2023-09-18T08:53:31;23.20;53.20
76789;DHT22;65740;52.464;13.446;2023-09-18T08:55:58;23.20;53.00
76789;DHT22;65740;52.464;13.446;2023-09-18T08:58:25;23.20;53.20
76789;DHT22;65740;52.464;13.446;2023-09-18T09:00:51;23.20;53.00
76789;DHT22;65740;52.464;13.446;2023-09-18T09:03:18;23.30;53.70
76789;DHT22;65740;52.464;13.446;2023-09-18T09:05:44;23.30;52.90
76789;DHT22;65740;52.464;13.446;2023-09-18T09:08:09;23.30;53.10
76789;DHT22;65740;52.464;13.446;2023-09-18T09:10:35;23.40;53.10
76789;DHT22;65740;52.464;13.446;2023-09-18T09:13:01;23.40;53.20
76789;DHT22;65740;52.464;13.446;2023-09-18T09:15:47;23.40;53.50
76789;DHT22;65740;52.464;13.446;2023-09-18T09:18:14;23.50;53.50
76789;DHT22;65740;52.464;13.446;2023-09-18T09:20:53;23.50;53.20
76789;DHT22;65740;52.464;13.446;2023-09-18T09:23:19;23.50;53.50
76789;DHT22;65740;52.464;13.446;2023-09-18T09:25:45;23.50;53.20
76789;DHT22;65740;52.464;13.446;2023-09-18T09:28:10;23.50;53.50
76789;DHT22;65740;52.464;13.446;2023-09-18T09:30:37;23.50;53.30
76789;DHT22;65740;52.464;13.446;2023-09-18T09:33:04;23.60;53.30
76789;DHT22;65740;52.464;13.446;2023-09-18T09:35:35;23.60;53.30
76789;DHT22;65740;52.464;13.446;2023-09-18T09:38:09;23.60;53.30
76789;DHT22;65740;52.464;13.446;2023-09-18T09:40:38;23.70;53.40
76789;DHT22;65740;52.464;13.446;2023-09-18T09:43:08;23.70;53.60
76789;DHT22;65740;52.464;13.446;2023-09-18T09:45:34;23.70;53.50
76789;DHT22;65740;52.464;13.446;2023-09-18T09:48:04;23.70;53.50
76789;DHT22;65740;52.464;13.446;2023-09-18T09:50:31;23.70;53.50
76789;DHT22;65740;52.464;13.446;2023-09-18T09:52:58;23.80;53.30
76789;DHT22;65740;52.464;13.446;2023-09-18T09:55:28;23.80;53.70
76789;DHT22;65740;52.464;13.446;2023-09-18T09:57:57;23.80;53.50
76789;DHT22;65740;52.464;13.446;2023-09-18T10:00:47;23.80;53.60
76789;DHT22;65740;52.464;13.446;2023-09-18T10:03:14;23.80;53.40
76789;DHT22;65740;52.464;13.446;2023-09-18T10:05:45;23.90;54.20
76789;DHT22;65740;52.464;13.446;2023-09-18T10:08:21;23.90;53.60
76789;DHT22;65740;52.464;13.446;2023-09-18T10:10:49;24.00;53.70
76789;DHT22;65740;52.464;13.446;2023-09-18T10:13:19;24.00;53.70
76789;DHT22;65740;52.464;13.446;2023-09-18T10:15:49;24.00;53.60
76789;DHT22;65740;52.464;13.446;2023-09-18T10:18:27;24.00;53.70
76789;DHT22;65740;52.464;13.446;2023-09-18T10:21:09;24.00;53.60
76789;DHT22;65740;52.464;13.446;2023-09-18T10:23:42;24.00;53.60
76789;DHT22;65740;52.464;13.446;2023-09-18T10:26:14;24.10;53.70
76789;DHT22;65740;52.464;13.446;2023-09-18T10:28:46;24.10;53.70
76789;DHT22;65740;52.464;13.446;2023-09-18T10:31:14;24.10;53.70
76789;DHT22;65740;52.464;13.446;2023-09-18T10:33:41;24.10;53.50
76789;DHT22;65740;52.464;13.446;2023-09-18T10:36:08;24.10;53.60
76789;DHT22;65740;52.464;13.446;2023-09-18T10:38:35;24.20;53.50
76789;DHT22;65740;52.464;13.446;2023-09-18T10:41:04;24.20;53.70
76789;DHT22;65740;52.464;13.446;2023-09-18T10:43:30;24.20;53.30
76789;DHT22;65740;52.464;13.446;2023-09-18T10:45:56;24.20;53.30
76789;DHT22;65740;52.464;13.446;2023-09-18T10:48:22;24.20;53.00
76789;DHT22;65740;52.464;13.446;2023-09-18T10:50:50;24.20;53.30
76789;DHT22;65740;52.464;13.446;2023-09-18T10:53:18;24.30;53.30
76789;DHT22;65740;52.464;13.446;2023-09-18T10:55:45;24.20;53.10
76789;DHT22;65740;52.464;13.446;2023-09-18T10:58:12;24.30;53.20
76789;DHT22;65740;52.464;13.446;2023-09-18T11:00:47;24.30;53.30
76789;DHT22;65740;52.464;13.446;2023-09-18T11:03:16;24.30;53.30
76789;DHT22;65740;52.464;13.446;2023-09-18T11:05:45;24.30;53.20
76789;DHT22;65740;52.464;13.446;2023-09-18T11:08:34;24.30;53.10
76789;DHT22;65740;52.464;13.446;2023-09-18T11:13:36;24.30;53.00
76789;DHT22;65740;52.464;13.446;2023-09-18T11:21:27;24.30;53.40
76789;DHT22;65740;52.464;13.446;2023-09-18T11:24:04;24.30;53.60
76789;DHT22;65740;52.464;13.446;2023-09-18T11:26:34;24.30;53.80
76789;DHT22;65740;52.464;13.446;2023-09-18T11:29:02;24.30;54.10
76789;DHT22;65740;52.464;13.446;2023-09-18T11:34:21;24.40;54.20
76789;DHT22;65740;52.464;13.446;2023-09-18T11:36:47;24.40;54.20
76789;DHT22;65740;52.464;13.446;2023-09-18T11:39:13;24.40;54.20
76789;DHT22;65740;52.464;13.446;2023-09-18T11:41:39;24.40;54.20
76789;DHT22;65740;52.464;13.446;2023-09-18T11:46:47;24.40;54.00
76789;DHT22;65740;52.464;13.446;2023-09-18T11:49:14;24.40;54.30
76789;DHT22;65740;52.464;13.446;2023-09-18T11:51:41;24.40;54.10
76789;DHT22;65740;52.464;13.446;2023-09-18T11:54:08;24.40;54.30
76789;DHT22;65740;52.464;13.446;2023-09-18T11:56:34;24.40;54.30
76789;DHT22;65740;52.464;13.446;2023-09-18T11:59:00;24.40;54.60
76789;DHT22;65740;52.464;13.446;2023-09-18T12:01:30;24.40;54.40
76789;DHT22;65740;52.464;13.446;2023-09-18T12:04:04;24.40;54.60
76789;DHT22;65740;52.464;13.446;2023-09-18T12:06:34;24.40;54.60
76789;DHT22;65740;52.464;13.446;2023-09-18T12:08:59;24.40;54.50
76789;DHT22;65740;52.464;13.446;2023-09-18T12:11:25;24.40;54.80
76789;DHT22;65740;52.464;13.446;2023-09-18T12:13:51;24.40;54.80
76789;DHT22;65740;52.464;13.446;2023-09-18T12:16:17;24.40;55.30
76789;DHT22;65740;52.464;13.446;2023-09-18T12:18:50;24.50;55.30
76789;DHT22;65740;52.464;13.446;2023-09-18T12:21:16;24.50;55.20
76789;DHT22;65740;52.464;13.446;2023-09-18T12:23:44;24.50;55.90
76789;DHT22;65740;52.464;13.446;2023-09-18T12:26:14;24.50;55.40
76789;DHT22;65740;52.464;13.446;2023-09-18T12:28:44;24.60;55.20
76789;DHT22;65740;52.464;13.446;2023-09-18T12:31:14;24.60;55.20
76789;DHT22;65740;52.464;13.446;2023-09-18T12:33:41;24.70;55.20
76789;DHT22;65740;52.464;13.446;2023-09-18T12:36:08;24.70;55.10
76789;DHT22;65740;52.464;13.446;2023-09-18T12:38:34;24.70;55.10
76789;DHT22;65740;52.464;13.446;2023-09-18T12:41:01;24.80;55.00
76789;DHT22;65740;52.464;13.446;2023-09-18T12:43:39;24.80;54.80
76789;DHT22;65740;52.464;13.446;2023-09-18T12:46:06;24.80;55.00
76789;DHT22;65740;52.464;13.446;2023-09-18T12:48:36;24.80;54.80
76789;DHT22;65740;52.464;13.446;2023-09-18T12:51:03;24.80;54.80
76789;DHT22;65740;52.464;13.446;2023-09-18T12:53:29;24.90;54.80
76789;DHT22;65740;52.464;13.446;2023-09-18T12:56:10;24.90;54.80
76789;DHT22;65740;52.464;13.446;2023-09-18T12:58:38;24.90;54.90
76789;DHT22;65740;52.464;13.446;2023-09-18T13:01:09;24.90;54.70
76789;DHT22;65740;52.464;13.446;2023-09-18T13:03:43;24.90;54.60
76789;DHT22;65740;52.464;13.446;2023-09-18T13:06:16;24.90;54.70
76789;DHT22;65740;52.464;13.446;2023-09-18T13:08:44;24.90;54.60
76789;DHT22;65740;52.464;13.446;2023-09-18T13:11:10;24.90;54.60
76789;DHT22;65740;52.464;13.446;2023-09-18T13:13:37;25.00;53.90
76789;DHT22;65740;52.464;13.446;2023-09-18T13:16:07;25.00;54.00
76789;DHT22;65740;52.464;13.446;2023-09-18T13:18:34;24.90;53.50
76789;DHT22;65740;52.464;13.446;2023-09-18T13:21:08;24.90;54.10
76789;DHT22;65740;52.464;13.446;2023-09-18T13:23:36;24.90;54.10
76789;DHT22;65740;52.464;13.446;2023-09-18T13:26:03;25.00;54.00
76789;DHT22;65740;52.464;13.446;2023-09-18T13:28:29;25.00;54.30
76789;DHT22;65740;52.464;13.446;2023-09-18T13:30:57;25.00;54.30
76789;DHT22;65740;52.464;13.446;2023-09-18T13:33:22;25.00;54.20
76789;DHT22;65740;52.464;13.446;2023-09-18T13:35:49;25.00;54.00
76789;DHT22;65740;52.464;13.446;2023-09-18T13:38:15;25.00;54.20
76789;DHT22;65740;52.464;13.446;2023-09-18T13:40:42;25.00;54.30
76789;DHT22;65740;52.464;13.446;2023-09-18T13:43:09;25.00;54.40
76789;DHT22;65740;52.464;13.446;2023-09-18T13:45:35;25.00;54.60
76789;DHT22;65740;52.464;13.446;2023-09-18T13:48:07;25.00;54.80
76789;DHT22;65740;52.464;13.446;2023-09-18T13:50:33;25.10;54.80
76789;DHT22;65740;52.464;13.446;2023-09-18T13:53:00;25.10;54.90
76789;DHT22;65740;52.464;13.446;2023-09-18T13:55:26;25.00;54.80
76789;DHT22;65740;52.464;13.446;2023-09-18T13:57:51;25.00;55.00
76789;DHT22;65740;52.464;13.446;2023-09-18T14:00:18;25.00;55.20
76789;DHT22;65740;52.464;13.446;2023-09-18T14:02:43;25.10;55.40
76789;DHT22;65740;52.464;13.446;2023-09-18T14:05:10;25.00;55.70
76789;DHT22;65740;52.464;13.446;2023-09-18T14:07:37;25.00;56.40
76789;DHT22;65740;52.464;13.446;2023-09-18T14:10:10;25.00;55.80
76789;DHT22;65740;52.464;13.446;2023-09-18T14:12:37;25.00;56.00
76789;DHT22;65740;52.464;13.446;2023-09-18T14:15:06;25.10;56.50
76789;DHT22;65740;52.464;13.446;2023-09-18T14:17:33;25.10;56.70
76789;DHT22;65740;52.464;13.446;2023-09-18T14:19:59;25.00;56.40
76789;DHT22;65740;52.464;13.446;2023-09-18T14:22:25;25.10;56.70
76789;DHT22;65740;52.464;13.446;2023-09-18T14:24:50;25.10;56.60
76789;DHT22;65740;52.464;13.446;2023-09-18T14:27:16;25.00;56.80
76789;DHT22;65740;52.464;13.446;2023-09-18T14:29:42;25.10;56.50
76789;DHT22;65740;52.464;13.446;2023-09-18T14:32:07;25.00;56.60
76789;DHT22;65740;52.464;13.446;2023-09-18T14:34:34;25.00;56.50
76789;DHT22;65740;52.464;13.446;2023-09-18T14:37:02;25.00;56.40
76789;DHT22;65740;52.464;13.446;2023-09-18T14:39:33;25.00;56.40
76789;DHT22;65740;52.464;13.446;2023-09-18T14:41:59;25.00;56.30
76789;DHT22;65740;52.464;13.446;2023-09-18T14:44:25;25.00;55.80
76789;DHT22;65740;52.464;13.446;2023-09-18T14:46:53;25.00;55.90
76789;DHT22;65740;52.464;13.446;2023-09-18T14:49:19;25.00;55.70
76789;DHT22;65740;52.464;13.446;2023-09-18T14:51:45;24.90;55.50
76789;DHT22;65740;52.464;13.446;2023-09-18T14:54:11;24.90;55.30
76789;DHT22;65740;52.464;13.446;2023-09-18T14:56:36;24.90;55.30
76789;DHT22;65740;52.464;13.446;2023-09-18T14:59:06;24.90;55.30
76789;DHT22;65740;52.464;13.446;2023-09-18T15:01:32;24.90;55.30
76789;DHT22;65740;52.464;13.446;2023-09-18T15:03:58;24.80;54.80
76789;DHT22;65740;52.464;13.446;2023-09-18T15:06:24;24.90;54.90
76789;DHT22;65740;52.464;13.446;2023-09-18T15:08:51;24.80;54.90
76789;DHT22;65740;52.464;13.446;2023-09-18T15:11:17;24.80;55.00
76789;DHT22;65740;52.464;13.446;2023-09-18T15:13:43;24.80;54.70
76789;DHT22;65740;52.464;13.446;2023-09-18T15:16:08;24.80;54.50
76789;DHT22;65740;52.464;13.446;2023-09-18T15:18:34;24.80;54.50
76789;DHT22;65740;52.464;13.446;2023-09-18T15:21:01;24.80;54.70
76789;DHT22;65740;52.464;13.446;2023-09-18T15:23:27;24.80;54.50
76789;DHT22;65740;52.464;13.446;2023-09-18T15:25:53;24.80;54.20
76789;DHT22;65740;52.464;13.446;2023-09-18T15:28:26;24.80;54.50
76789;DHT22;65740;52.464;13.446;2023-09-18T15:30:54;24.80;54.40
76789;DHT22;65740;52.464;13.446;2023-09-18T15:33:20;24.80;55.10